Flight Track Log - Related Links

Times and Time Zones

All times are in EDT time to prevent confusion due to time zone crossing. See the JBU917 flight status page for this flight to view local times or setup timezone preferences in your user account.

Time Position Orientation Groundspeed Altitude Reporting Facility
EDT Latitude Longitude Course Direction KTS MPH feet Rate Location/Type
Tue 04:10:21 PM 40.6667 -73.7500 306° West 155 178 1,700  Level New York TRACON
Tue 04:11:21 PM 40.6667 -73.6833 90° East 185 213 3,800 2,200 Climbing New York TRACON
Tue 04:12:21 PM 40.6667 -73.6000 90° East 241 277 6,100 2,550 Climbing New York TRACON
Tue 04:13:00 PM 40.8393 -74.1619 304° West  Level FlightAware Approximate
Tue 04:13:21 PM 40.7167 -73.5500 37° Northeast 283 326 8,900  Level New York TRACON
Tue 04:14:00 PM 40.8924 -74.2638 306° West  Level FlightAware Approximate
Tue 04:14:27 PM 40.8000 -73.5500 360° North 289 333 11,600  Level New York TRACON
Tue 04:15:00 PM 40.9472 -74.3643 306° West  Level FlightAware Approximate
Tue 04:15:27 PM 40.8667 -73.6333 317° Northwest 323 372 13,600  Level New York TRACON
Tue 04:16:27 PM 40.9333 -73.7167 317° Northwest 349 402 15,800 1,686 Climbing New York TRACON
Tue 04:17:28 PM 41.0000 -73.8000 317° Northwest 361 415 17,000 595 Climbing New York TRACON
Tue 04:18:28 PM 41.0500 -73.9167 300° West 360 414 17,000  Level New York TRACON
Tue 04:19:34 PM 41.0667 -74.0667 278° West 359 413 17,000  Level New York TRACON
Tue 04:21:17 PM 41.0911 -74.2703 279° West 379 436 17,000  Level New York Center
Tue 04:22:15 PM 41.1075 -74.4142 279° West 372 428 17,000  Level New York Center
Tue 04:23:15 PM 41.1203 -74.5333 278° West 372 428 17,000  Level New York Center
Tue 04:24:16 PM 41.1367 -74.6775 279° West 372 428 17,000 99 Level New York Center
Tue 04:25:16 PM 41.1767 -74.7844 296° West 367 422 17,200 1,425 Climbing New York Center
Tue 04:27:17 PM 41.2786 -75.0253 299° West 373 429 21,300 2,033 Climbing New York Center
Tue 04:28:16 PM 41.3306 -75.1447 300° West 373 429 23,300 1,866 Climbing New York Center
Tue 04:29:16 PM 41.3842 -75.2669 300° West 373 429 25,000 1,537 Climbing New York Center
Tue 04:30:17 PM 41.4358 -75.3922 299° West 384 442 26,400 1,361 Climbing New York Center
Tue 04:31:15 PM 41.4869 -75.5203 298° West 384 442 27,700 807 Climbing New York Center
Tue 04:32:16 PM 41.5306 -75.6758 291° West 396 456 28,000 149 Climbing New York Center
Tue 04:33:16 PM 41.5669 -75.8006 291° West 402 463 28,000  Level New York Center
Tue 04:34:16 PM 41.6067 -75.9394 291° West 402 463 28,000  Level New York Center
Tue 04:35:17 PM 41.6464 -76.0814 291° West 402 463 28,000  Level New York Center
Tue 04:36:17 PM 41.6858 -76.2206 291° West 402 463 28,000  Level New York Center
Tue 04:37:15 PM 41.7250 -76.3628 290° West 402 463 28,000  Level New York Center
Tue 04:38:15 PM 41.7678 -76.5164 291° West 402 463 28,000  Level New York Center
Tue 04:39:16 PM 41.8047 -76.6561 290° West 402 463 28,000  Level New York Center
Tue 04:40:17 PM 41.8400 -76.7817 291° West 396 456 28,000  Level New York Center
Tue 04:41:50 PM 41.9047 -77.0172 290° West 397 457 28,000  Level Cleveland Center
Tue 04:42:50 PM 41.9403 -77.1578 289° West 397 457 28,000  Level Cleveland Center
Tue 04:43:50 PM 41.9797 -77.2925 292° West 402 463 28,000  Level Cleveland Center
Tue 04:44:50 PM 42.0167 -77.4247 291° West 397 457 28,000  Level Cleveland Center
Tue 04:45:50 PM 42.0539 -77.5628 290° West 397 457 28,000  Level Cleveland Center
Tue 04:46:50 PM 42.0906 -77.7011 290° West 397 457 28,000  Level Cleveland Center
Tue 04:47:50 PM 42.1253 -77.8367 289° West 397 457 28,000  Level Cleveland Center
Tue 04:48:50 PM 42.1619 -77.9753 290° West 397 457 28,000  Level Cleveland Center
Tue 04:49:50 PM 42.1981 -78.1111 290° West 397 457 28,000  Level Cleveland Center
Tue 04:50:50 PM 42.2344 -78.2528 289° West 397 457 28,000  Level Cleveland Center
Tue 04:51:50 PM 42.2683 -78.3889 289° West 397 457 28,000  Level Cleveland Center
Tue 04:52:50 PM 42.3044 -78.5281 289° West 402 463 28,000  Level Cleveland Center
Tue 04:53:50 PM 42.3400 -78.6675 289° West 402 463 28,000  Level Cleveland Center
Tue 04:54:50 PM 42.3736 -78.8014 289° West 397 457 28,000  Level Cleveland Center
Tue 04:55:50 PM 42.4025 -78.9269 287° West 397 457 28,000  Level Cleveland Center
Tue 04:56:50 PM 42.4378 -79.0667 289° West 392 451 28,000  Level Cleveland Center
Tue 04:57:50 PM 42.4772 -79.2150 290° West 392 451 28,000  Level Cleveland Center
Tue 04:58:50 PM 42.4953 -79.3583 280° West 382 440 28,000  Level Cleveland Center
Tue 04:59:50 PM 42.5031 -79.5044 274° West 382 440 28,000  Level Cleveland Center
Tue 05:00:50 PM 42.5106 -79.6481 274° West 389 448 28,000  Level Cleveland Center
Tue 05:01:50 PM 42.5200 -79.7944 275° West 389 448 28,000  Level Cleveland Center
Tue 05:02:50 PM 42.5272 -79.9408 274° West 389 448 28,000  Level Cleveland Center
Tue 05:03:50 PM 42.5258 -80.0844 269° West 383 441 28,000  Level Cleveland Center
Tue 05:04:50 PM 42.5347 -80.2308 275° West 383 441 28,000  Level Cleveland Center
Tue 05:05:50 PM 42.5414 -80.3747 274° West 383 441 28,000  Level Cleveland Center
Tue 05:06:50 PM 42.5456 -80.5014 273° West 384 442 28,000  Level Cleveland Center
Tue 05:07:50 PM 42.5519 -80.6453 273° West 384 442 28,000  Level Cleveland Center
Tue 05:08:50 PM 42.5581 -80.7889 273° West 384 442 28,000  Level Cleveland Center
Tue 05:09:50 PM 42.5658 -80.9328 274° West 384 442 28,000  Level Cleveland Center
Tue 05:10:50 PM 42.5864 -81.0711 281° West 384 442 28,000  Level Cleveland Center
Tue 05:11:50 PM 42.6064 -81.2094 281° West 389 448 28,000  Level Cleveland Center
Tue 05:12:50 PM 42.6286 -81.3536 282° West 384 442 28,000  Level Cleveland Center
Tue 05:13:50 PM 42.6503 -81.4950 282° West 390 449 28,000  Level Cleveland Center
Tue 05:14:50 PM 42.6742 -81.6506 282° West 390 449 28,000  Level Cleveland Center
Tue 05:15:50 PM 42.6956 -81.7922 282° West 390 449 28,000  Level Cleveland Center
Tue 05:16:50 PM 42.7131 -81.9169 281° West 384 442 28,000  Level Cleveland Center
Tue 05:17:50 PM 42.7342 -82.0614 281° West 389 448 28,000  Level Cleveland Center
Tue 05:18:50 PM 42.7550 -82.2061 280° West 389 448 28,000  Level Cleveland Center
Tue 05:19:00 PM 42.7547 -82.2178 280° West  Level FlightAware Approximate
Tue 05:19:50 PM 42.7739 -82.3511 280° West 389 448 28,000  Level Cleveland Center
Tue 05:20:50 PM 42.7903 -82.4958 279° West 394 453 28,000  Level Cleveland Center
Tue 05:21:50 PM 42.7983 -82.6403 274° West 388 447 28,000  Level Cleveland Center
Tue 05:22:50 PM 42.8058 -82.7878 274° West 388 447 28,000  Level Cleveland Center
Tue 05:23:50 PM 42.8133 -82.9353 274° West 388 447 28,000  Level Cleveland Center
Tue 05:24:50 PM 42.8208 -83.0797 274° West 388 447 28,000  Level Cleveland Center
Tue 05:25:50 PM 42.8278 -83.2386 273° West 388 447 28,000  Level Cleveland Center
Tue 05:26:50 PM 42.8311 -83.3578 272° West 375 432 28,000  Level Cleveland Center
Tue 05:27:50 PM 42.8383 -83.4883 274° West 363 418 28,000  Level Cleveland Center
Tue 05:28:50 PM 42.8453 -83.6189 274° West 357 411 28,000  Level Cleveland Center
Tue 05:29:50 PM 42.8503 -83.7522 273° West 352 405 28,000  Level Cleveland Center
Tue 05:30:50 PM 42.8569 -83.8831 274° West 352 405 28,000  Level Cleveland Center
Tue 05:31:50 PM 42.8614 -84.0136 273° West 352 405 28,000  Level Cleveland Center
Tue 05:32:50 PM 42.8658 -84.1442 273° West 347 399 28,000  Level Cleveland Center
Tue 05:33:50 PM 42.8722 -84.2747 274° West 352 405 28,000  Level Cleveland Center
Tue 05:34:46 PM 42.8781 -84.4092 273° West 354 407 28,000  Level Chicago Center
Tue 05:35:48 PM 42.8831 -84.5461 273° West 361 415 28,000  Level Chicago Center
Tue 05:36:50 PM 42.8756 -84.6803 266° West 359 413 28,000  Level Chicago Center
Tue 05:37:52 PM 42.8603 -84.8169 261° West 358 412 28,000  Level Chicago Center
Tue 05:38:54 PM 42.8461 -84.9469 262° West 355 409 28,000  Level Chicago Center
Tue 05:39:56 PM 42.8325 -85.0806 262° West 357 411 28,000  Level Chicago Center
Tue 05:40:58 PM 42.8142 -85.2422 261° West 359 413 28,000 -532 Level Chicago Center
Tue 05:42:00 PM 42.8003 -85.3831 262° West 368 423 26,900 -1,129 Descending Chicago Center
Tue 05:43:00 PM 42.7769 -85.5137 254° West  Level FlightAware Approximate
Tue 05:44:04 PM 42.7564 -85.6653 254° West 378 435 24,500  Level Chicago Center
Tue 05:45:06 PM 42.7308 -85.8033 256° West 375 432 23,300 -1,161 Descending Chicago Center
Tue 05:46:08 PM 42.7075 -85.9389 257° West 369 425 22,100 -1,161 Descending Chicago Center
Tue 05:47:10 PM 42.6822 -86.0714 255° West 362 417 20,900 -1,008 Descending Chicago Center
Tue 05:48:13 PM 42.6536 -86.2292 256° West 357 411 20,000 -432 Descending Chicago Center
Tue 05:49:15 PM 42.6286 -86.3578 255° West 352 405 20,000  Level Chicago Center
Tue 05:50:17 PM 42.6053 -86.4881 256° West 354 407 20,000 -97 Level Chicago Center
Tue 05:51:19 PM 42.5794 -86.6181 255° West 356 410 19,800 -871 Descending Chicago Center
Tue 05:52:21 PM 42.5572 -86.7406 256° West 349 402 18,200 -2,081 Descending Chicago Center
Tue 05:53:23 PM 42.5236 -86.8642 250° West 339 390 15,500 -2,516 Descending Chicago Center
Tue 05:54:25 PM 42.4869 -87.0017 250° West 323 372 13,000 -1,790 Descending Chicago Center
Tue 05:55:27 PM 42.4547 -87.1089 248° West 311 358 11,800 -1,452 Descending Chicago Center
Tue 05:56:29 PM 42.4256 -87.2186 250° West 310 357 10,000 -1,016 Descending Chicago Center
Tue 05:57:31 PM 42.3989 -87.3150 249° West 279 321 9,700 -484 Descending Chicago Center
Tue 05:58:33 PM 42.3725 -87.4094 249° West 245 282 9,000 -532 Descending Chicago Center
Tue 05:59:35 PM 42.3489 -87.4947 249° West 243 280 8,600 -1,016 Descending Chicago Center
Tue 06:00:37 PM 42.3011 -87.5453 218° Southwest 252 290 6,900 -1,488 Descending Chicago Center
Tue 06:01:40 PM 42.2306 -87.5339 173° South 258 297 5,500 -912 Descending Chicago Center
Tue 06:02:42 PM 42.1617 -87.5222 173° South 251 289 5,000 -726 Descending Chicago Center
Tue 06:03:44 PM 42.1078 -87.4797 150° Southeast 226 260 4,000 -759 Descending Chicago Center
Tue 06:04:01 PM 42.1000 -87.4500 109° East 229 264 4,000  Level Chicago TRACON
Tue 06:05:01 PM 42.0667 -87.4000 132° Southeast 233 268 4,000  Level Chicago TRACON
Tue 06:06:02 PM 42.0167 -87.4167 194° South 210 242 4,000  Level Chicago TRACON
Tue 06:07:02 PM 42.0000 -87.4833 251° West 182 209 4,000  Level Chicago TRACON
Tue 06:08:02 PM 42.0000 -87.5500 270° West 185 213 4,000  Level Chicago TRACON
Tue 06:09:02 PM 42.0000 -87.6167 270° West 187 215 4,000 -100 Level Chicago TRACON
Tue 06:10:02 PM 42.0000 -87.7000 270° West 185 213 3,800 -600 Descending Chicago TRACON
Tue 06:11:02 PM 42.0000 -87.7667 270° West 181 208 2,800 -1,000 Descending Chicago TRACON
Tue 06:12:02 PM 42.0000 -87.8167 270° West 160 184 1,800 -850 Descending Chicago TRACON
Tue 06:13:02 PM 42.0000 -87.8833 270° West 142 163 1,100 -700 Descending Chicago TRACON
Tue 06:15:00 PM 41.9817 -87.9067 206° Southwest  Level Estimated

Login

Don't have an account? Register now (free) for customized features, flight alerts, and more!